createdAt,value
2023-03-14T00:00:15.103Z,5.39
2023-03-14T00:02:42.399Z,5.34
2023-03-14T00:05:11.020Z,5.27
2023-03-14T00:07:40.245Z,5.29
2023-03-14T00:10:12.295Z,5.35
2023-03-14T00:12:39.339Z,5.37
2023-03-14T00:15:08.127Z,5.38
2023-03-14T00:17:36.618Z,5.36
2023-03-14T00:20:09.388Z,5.36
2023-03-14T00:22:37.313Z,5.25
2023-03-14T00:25:06.859Z,5.25
2023-03-14T00:27:34.284Z,5.16
2023-03-14T00:30:01.866Z,5.01
2023-03-14T00:32:28.896Z,5.00
2023-03-14T00:34:56.070Z,4.96
2023-03-14T00:37:23.012Z,4.85
2023-03-14T00:39:49.815Z,4.88
2023-03-14T00:42:16.598Z,4.79
2023-03-14T00:44:43.375Z,4.79
2023-03-14T00:47:10.220Z,4.76
2023-03-14T00:49:37.082Z,4.83
2023-03-14T00:52:03.925Z,4.83
2023-03-14T00:54:31.081Z,4.79
2023-03-14T00:56:57.847Z,4.80
2023-03-14T00:59:24.705Z,4.78
2023-03-14T01:01:51.555Z,4.79
2023-03-14T01:04:18.359Z,4.68
2023-03-14T01:06:45.290Z,4.66
2023-03-14T01:09:12.529Z,4.47
2023-03-14T01:11:39.363Z,4.49
2023-03-14T01:14:06.686Z,4.37
2023-03-14T01:16:36.237Z,4.35
2023-03-14T01:19:04.316Z,4.28
2023-03-14T01:21:36.520Z,4.16
2023-03-14T01:24:06.172Z,4.22
2023-03-14T01:26:35.979Z,4.19
2023-03-14T01:29:05.167Z,4.15
2023-03-14T01:31:32.123Z,4.10
2023-03-14T01:33:59.252Z,4.05
2023-03-14T01:36:26.113Z,4.01
2023-03-14T01:38:53.598Z,4.02
2023-03-14T01:41:24.578Z,4.03
2023-03-14T01:43:52.330Z,4.02
2023-03-14T01:46:22.592Z,3.93
2023-03-14T01:49:05.800Z,3.88
2023-03-14T01:51:44.683Z,3.88
2023-03-14T01:54:23.311Z,3.88
2023-03-14T01:57:13.679Z,3.80
2023-03-14T01:59:45.881Z,3.71
2023-03-14T02:02:13.883Z,3.80
2023-03-14T02:04:41.513Z,3.80
2023-03-14T02:07:19.321Z,3.74
2023-03-14T02:09:46.349Z,3.74
2023-03-14T02:12:17.608Z,3.76
2023-03-14T02:14:49.099Z,3.73
2023-03-14T02:17:19.313Z,3.69
2023-03-14T02:19:55.438Z,3.73
2023-03-14T02:22:22.375Z,3.70
2023-03-14T02:24:57.600Z,3.76
2023-03-14T02:27:24.388Z,3.76
2023-03-14T02:29:57.913Z,3.71
2023-03-14T02:32:27.732Z,3.67
2023-03-14T02:34:59.425Z,3.68
2023-03-14T02:37:43.143Z,3.70
2023-03-14T02:40:11.538Z,3.69
2023-03-14T02:42:38.437Z,3.69
2023-03-14T02:45:11.382Z,3.66
2023-03-14T02:47:44.900Z,3.63
2023-03-14T02:50:17.329Z,3.62
2023-03-14T02:52:44.069Z,3.64
2023-03-14T02:55:11.436Z,3.56
2023-03-14T02:57:38.354Z,3.62
2023-03-14T03:00:06.505Z,3.65
2023-03-14T03:02:33.633Z,3.71
2023-03-14T03:05:00.504Z,3.80
2023-03-14T03:07:27.407Z,3.81
2023-03-14T03:09:54.587Z,3.88
2023-03-14T03:12:21.402Z,3.77
2023-03-14T03:14:48.193Z,3.85
2023-03-14T03:17:14.998Z,3.75
2023-03-14T03:19:42.272Z,3.74
2023-03-14T03:22:09.081Z,3.68
2023-03-14T03:24:36.121Z,3.67
2023-03-14T03:27:02.895Z,3.67
2023-03-14T03:29:29.721Z,3.62
2023-03-14T03:31:56.539Z,3.59
2023-03-14T03:34:23.357Z,3.51
2023-03-14T03:36:50.165Z,3.55
2023-03-14T03:39:16.933Z,3.41
2023-03-14T03:41:43.718Z,3.35
2023-03-14T03:44:10.773Z,3.32
2023-03-14T03:46:37.705Z,3.30
2023-03-14T03:49:04.539Z,3.28
2023-03-14T03:51:31.419Z,3.24
2023-03-14T03:53:58.453Z,3.28
2023-03-14T03:56:25.448Z,3.27
2023-03-14T03:58:52.350Z,3.32
2023-03-14T04:01:19.183Z,3.37
2023-03-14T04:03:46.224Z,3.38
2023-03-14T04:06:14.834Z,3.42
2023-03-14T04:08:42.616Z,3.41
2023-03-14T04:11:09.411Z,3.46
2023-03-14T04:13:36.286Z,3.49
2023-03-14T04:16:03.203Z,3.56
2023-03-14T04:18:31.437Z,3.60
2023-03-14T04:20:59.577Z,3.58
2023-03-14T04:23:26.801Z,3.60
2023-03-14T04:25:54.749Z,3.66
2023-03-14T04:28:21.726Z,3.58
2023-03-14T04:30:48.550Z,3.62
2023-03-14T04:33:18.478Z,3.57
2023-03-14T04:35:49.019Z,3.58
2023-03-14T04:38:15.906Z,3.52
2023-03-14T04:40:43.769Z,3.39
2023-03-14T04:43:11.932Z,3.31
2023-03-14T04:45:43.017Z,3.26
2023-03-14T04:48:10.808Z,3.22
2023-03-14T04:50:37.561Z,3.15
2023-03-14T04:53:04.425Z,3.16
2023-03-14T04:55:33.672Z,3.23
2023-03-14T04:58:00.752Z,3.20
2023-03-14T05:00:27.566Z,3.20
2023-03-14T05:02:54.422Z,3.26
2023-03-14T05:05:21.891Z,3.17
2023-03-14T05:07:48.906Z,3.10
2023-03-14T05:10:15.755Z,3.17
2023-03-14T05:12:42.941Z,3.16
2023-03-14T05:15:10.625Z,3.12
2023-03-14T05:17:37.709Z,3.07
2023-03-14T05:20:10.194Z,3.03
2023-03-14T05:22:37.308Z,3.02
2023-03-14T05:25:04.477Z,2.93
2023-03-14T05:27:31.547Z,2.97
2023-03-14T05:29:58.361Z,2.90
2023-03-14T05:32:25.212Z,2.85
2023-03-14T05:34:52.311Z,2.75
2023-03-14T05:37:20.158Z,2.71
2023-03-14T05:39:47.253Z,2.65
2023-03-14T05:42:14.646Z,2.62
2023-03-14T05:44:41.539Z,2.56
2023-03-14T05:47:08.371Z,2.57
2023-03-14T05:49:35.389Z,2.57
2023-03-14T05:52:02.709Z,2.59
2023-03-14T05:54:29.521Z,2.60
2023-03-14T05:56:56.375Z,2.57
2023-03-14T05:59:23.321Z,2.60
2023-03-14T06:01:50.139Z,2.60
2023-03-14T06:04:17.025Z,2.64
2023-03-14T06:06:43.845Z,2.64
2023-03-14T06:09:10.600Z,2.67
2023-03-14T06:11:37.533Z,2.67
2023-03-14T06:14:04.412Z,2.72
2023-03-14T06:16:33.308Z,2.72
2023-03-14T06:19:00.368Z,2.72
2023-03-14T06:21:27.142Z,2.66
2023-03-14T06:23:53.948Z,2.73
2023-03-14T06:26:24.632Z,2.75
2023-03-14T06:28:52.122Z,2.78
2023-03-14T06:31:19.222Z,2.78
2023-03-14T06:33:46.026Z,2.73
2023-03-14T06:36:12.938Z,2.71
2023-03-14T06:38:39.787Z,2.72
2023-03-14T06:41:08.639Z,2.67
2023-03-14T06:43:35.486Z,2.57
2023-03-14T06:46:02.372Z,2.46
2023-03-14T06:48:29.269Z,2.44
2023-03-14T06:50:56.330Z,2.45
2023-03-14T06:53:23.643Z,2.50
2023-03-14T06:55:51.361Z,2.50
2023-03-14T06:58:18.524Z,2.44
2023-03-14T07:00:45.596Z,2.44
2023-03-14T07:03:14.959Z,2.49
2023-03-14T07:05:42.422Z,2.50
2023-03-14T07:08:10.061Z,2.51
2023-03-14T07:10:36.967Z,2.55
2023-03-14T07:13:04.582Z,2.56
2023-03-14T07:15:32.323Z,2.58
2023-03-14T07:17:59.241Z,2.60
2023-03-14T07:20:26.250Z,2.69
2023-03-14T07:22:53.024Z,2.70
2023-03-14T07:25:19.920Z,2.67
2023-03-14T07:27:50.392Z,2.71
2023-03-14T07:30:17.609Z,2.74
2023-03-14T07:32:44.639Z,2.72
2023-03-14T07:35:11.452Z,2.66
2023-03-14T07:37:38.320Z,2.78
2023-03-14T07:40:09.111Z,3.01
2023-03-14T07:42:36.302Z,3.35
2023-03-14T07:45:04.195Z,3.61
2023-03-14T07:47:31.149Z,3.87
2023-03-14T07:49:57.936Z,3.85
2023-03-14T07:52:25.509Z,4.12
2023-03-14T07:54:52.672Z,4.35
2023-03-14T07:57:19.437Z,4.30
2023-03-14T07:59:46.190Z,4.27
2023-03-14T08:02:14.276Z,4.41
2023-03-14T08:04:41.682Z,4.46
2023-03-14T08:07:09.260Z,4.42
2023-03-14T08:09:36.428Z,4.56
2023-03-14T08:12:03.396Z,4.51
2023-03-14T08:14:30.705Z,4.58
2023-03-14T08:16:58.990Z,4.52
2023-03-14T08:19:26.036Z,4.53
2023-03-14T08:21:53.020Z,4.75
2023-03-14T08:24:19.888Z,4.70
2023-03-14T08:26:46.689Z,4.69
2023-03-14T08:29:13.961Z,4.83
2023-03-14T08:31:41.076Z,4.80
2023-03-14T08:34:08.173Z,5.05
2023-03-14T08:36:35.342Z,5.08
2023-03-14T08:39:02.320Z,5.22
2023-03-14T08:41:29.101Z,5.40
2023-03-14T08:43:55.973Z,5.56
2023-03-14T08:46:22.866Z,5.71
2023-03-14T08:48:49.703Z,5.78
2023-03-14T08:51:16.875Z,5.95
2023-03-14T08:53:43.916Z,5.84
2023-03-14T08:56:11.773Z,5.95
2023-03-14T08:58:39.233Z,5.96
2023-03-14T09:01:07.408Z,5.84
2023-03-14T09:03:34.461Z,5.75
2023-03-14T09:06:06.711Z,5.71
2023-03-14T09:08:35.531Z,5.77
2023-03-14T09:11:03.704Z,5.74
2023-03-14T09:13:30.513Z,5.68
2023-03-14T09:15:58.644Z,5.78
2023-03-14T09:18:25.491Z,5.74
2023-03-14T09:20:52.756Z,5.51
2023-03-14T09:23:19.530Z,5.38
2023-03-14T09:25:46.358Z,5.42
2023-03-14T09:28:14.163Z,5.33
2023-03-14T09:30:41.034Z,5.50
2023-03-14T09:33:07.950Z,5.51
2023-03-14T09:35:35.801Z,5.64
2023-03-14T09:38:02.609Z,5.74
2023-03-14T09:40:36.570Z,5.80
2023-03-14T09:43:04.401Z,5.92
2023-03-14T09:45:38.114Z,5.98
2023-03-14T09:48:06.678Z,6.07
2023-03-14T09:50:56.031Z,6.04
2023-03-14T09:53:34.648Z,6.17
2023-03-14T09:56:01.582Z,6.12
2023-03-14T09:58:28.424Z,6.22
2023-03-14T10:00:58.475Z,6.20
2023-03-14T10:03:35.198Z,6.30
2023-03-14T10:06:03.159Z,6.33
2023-03-14T10:08:30.278Z,6.40
2023-03-14T10:10:57.262Z,6.48
2023-03-14T10:13:29.739Z,6.46
2023-03-14T10:16:02.710Z,6.53
2023-03-14T10:18:32.729Z,6.63
2023-03-14T10:21:25.845Z,6.65
2023-03-14T10:23:52.715Z,6.70
2023-03-14T10:26:27.495Z,6.81
2023-03-14T10:29:12.223Z,6.92
2023-03-14T10:31:54.967Z,6.83
2023-03-14T10:34:38.491Z,6.80
2023-03-14T10:37:22.911Z,6.87
2023-03-14T10:39:56.849Z,6.90
2023-03-14T10:42:31.199Z,6.96
2023-03-14T10:45:03.405Z,6.92
2023-03-14T10:47:31.257Z,7.05
2023-03-14T10:50:23.590Z,7.11
2023-03-14T10:53:01.914Z,7.34
2023-03-14T10:55:42.542Z,7.44
2023-03-14T10:58:26.260Z,7.53
2023-03-14T11:01:03.354Z,7.48
2023-03-14T11:03:36.430Z,7.51
2023-03-14T11:06:17.513Z,7.46
2023-03-14T11:08:58.790Z,7.46
2023-03-14T11:11:30.897Z,7.57
2023-03-14T11:14:33.125Z,7.56
2023-03-14T11:17:21.545Z,7.44
2023-03-14T11:19:59.177Z,7.59
2023-03-14T11:22:41.302Z,7.67
2023-03-14T11:25:26.633Z,7.77
2023-03-14T11:28:10.846Z,7.86
2023-03-14T11:30:59.273Z,7.83
2023-03-14T11:33:36.957Z,7.79
2023-03-14T11:36:12.742Z,7.72
2023-03-14T11:38:44.902Z,7.75
2023-03-14T11:41:19.521Z,7.88
2023-03-14T11:43:50.429Z,8.04
2023-03-14T11:46:29.857Z,8.12
2023-03-14T11:49:18.414Z,8.14
2023-03-14T11:51:51.895Z,8.12
2023-03-14T11:54:46.753Z,8.10
2023-03-14T11:57:20.046Z,8.03
2023-03-14T11:59:58.983Z,8.00
2023-03-14T12:02:37.830Z,7.91
2023-03-14T12:05:58.105Z,8.09
2023-03-14T12:08:48.239Z,8.17
2023-03-14T12:11:26.791Z,8.10
2023-03-14T12:13:54.984Z,8.14
2023-03-14T12:16:31.745Z,7.99
2023-03-14T12:18:58.653Z,8.10
2023-03-14T12:21:59.398Z,8.03
2023-03-14T12:24:37.839Z,7.96
2023-03-14T12:27:08.053Z,8.09
2023-03-14T12:30:03.984Z,8.05
2023-03-14T12:32:33.425Z,8.26
2023-03-14T12:35:39.126Z,8.39
2023-03-14T12:38:34.327Z,8.43
2023-03-14T12:41:21.174Z,8.39
2023-03-14T12:43:48.685Z,8.39
2023-03-14T12:46:18.309Z,8.48
2023-03-14T12:49:01.984Z,8.38
2023-03-14T12:51:41.073Z,8.41
2023-03-14T12:54:33.137Z,8.49
2023-03-14T12:57:20.908Z,8.37
2023-03-14T12:59:58.675Z,8.54
2023-03-14T13:02:38.322Z,8.57
2023-03-14T13:05:14.693Z,8.71
2023-03-14T13:07:47.043Z,8.83
2023-03-14T13:10:25.709Z,8.94
2023-03-14T13:13:04.459Z,8.74
2023-03-14T13:15:39.302Z,8.82
2023-03-14T13:18:19.578Z,8.84
2023-03-14T13:21:18.703Z,8.86
2023-03-14T13:24:02.715Z,9.02
2023-03-14T13:26:38.255Z,8.96
2023-03-14T13:29:23.023Z,8.97
2023-03-14T13:31:53.982Z,8.91
2023-03-14T13:34:22.175Z,8.81
2023-03-14T13:36:54.011Z,8.58
2023-03-14T13:39:26.141Z,8.52
2023-03-14T13:41:54.533Z,8.43
2023-03-14T13:44:39.730Z,8.25
2023-03-14T13:47:17.947Z,8.22
2023-03-14T13:49:46.156Z,8.24
2023-03-14T13:52:36.825Z,8.38
2023-03-14T13:55:06.643Z,8.61
2023-03-14T13:57:56.159Z,8.82
2023-03-14T14:00:29.208Z,9.01
2023-03-14T14:02:58.637Z,9.22
2023-03-14T14:05:29.886Z,9.29
2023-03-14T14:07:57.692Z,9.30
2023-03-14T14:10:27.686Z,9.18
2023-03-14T14:13:03.198Z,9.11
2023-03-14T14:15:36.672Z,9.08
2023-03-14T14:18:07.710Z,8.97
2023-03-14T14:20:42.414Z,9.07
2023-03-14T14:23:14.550Z,9.05
2023-03-14T14:25:42.057Z,8.98
2023-03-14T14:28:31.681Z,9.01
2023-03-14T14:31:16.772Z,8.98
2023-03-14T14:34:04.345Z,8.88
2023-03-14T14:36:51.096Z,8.81
2023-03-14T14:39:25.468Z,8.63
2023-03-14T14:41:54.053Z,8.65
2023-03-14T14:44:34.240Z,8.57
2023-03-14T14:47:04.286Z,8.43
2023-03-14T14:49:34.090Z,8.44
2023-03-14T14:52:16.335Z,8.08
2023-03-14T14:55:09.160Z,7.71
2023-03-14T14:57:42.485Z,7.67
2023-03-14T15:00:19.846Z,7.61
2023-03-14T15:02:50.419Z,7.51
2023-03-14T15:05:20.735Z,7.39
2023-03-14T15:07:48.402Z,7.31
2023-03-14T15:10:22.336Z,7.29
2023-03-14T15:12:49.390Z,7.17
2023-03-14T15:15:18.101Z,7.21
2023-03-14T15:17:45.335Z,7.08
2023-03-14T15:20:15.991Z,7.09
2023-03-14T15:22:43.055Z,7.11
2023-03-14T15:25:31.576Z,7.08
2023-03-14T15:27:58.302Z,7.09
2023-03-14T15:30:26.045Z,7.16
2023-03-14T15:32:52.879Z,6.95
2023-03-14T15:35:19.965Z,6.93
2023-03-14T15:37:46.759Z,6.85
2023-03-14T15:40:15.402Z,6.59
2023-03-14T15:42:42.675Z,6.35
2023-03-14T15:45:10.355Z,6.08
2023-03-14T15:47:37.398Z,5.83
2023-03-14T15:50:05.753Z,5.60
2023-03-14T15:52:32.983Z,5.69
2023-03-14T15:54:59.752Z,5.49
2023-03-14T15:57:26.610Z,5.34
2023-03-14T15:59:53.948Z,5.22
2023-03-14T16:02:20.948Z,4.93
2023-03-14T16:04:47.764Z,4.83
2023-03-14T16:07:14.698Z,4.70
2023-03-14T16:09:41.471Z,4.59
2023-03-14T16:12:09.921Z,4.64
2023-03-14T16:14:36.764Z,4.51
2023-03-14T16:17:03.652Z,4.66
2023-03-14T16:19:32.100Z,4.58
2023-03-14T16:21:58.938Z,4.60
2023-03-14T16:24:25.842Z,4.59
2023-03-14T16:26:52.701Z,4.51
2023-03-14T16:29:19.563Z,4.47
2023-03-14T16:31:47.385Z,4.55
2023-03-14T16:34:15.314Z,4.45
2023-03-14T16:36:42.529Z,4.42
2023-03-14T16:39:09.322Z,4.42
2023-03-14T16:41:36.151Z,4.39
2023-03-14T16:44:03.093Z,4.36
2023-03-14T16:46:30.784Z,4.34
2023-03-14T16:48:57.871Z,4.45
2023-03-14T16:51:24.816Z,4.38
2023-03-14T16:53:51.719Z,4.27
2023-03-14T16:56:18.891Z,4.15
2023-03-14T16:58:46.439Z,4.27
2023-03-14T17:01:18.309Z,4.27
2023-03-14T17:03:48.656Z,4.23
2023-03-14T17:06:25.833Z,4.13
2023-03-14T17:08:55.193Z,4.22
2023-03-14T17:11:23.308Z,4.21
2023-03-14T17:13:50.278Z,4.26
2023-03-14T17:16:17.684Z,4.14
2023-03-14T17:18:44.567Z,4.24
2023-03-14T17:21:11.407Z,4.12
2023-03-14T17:23:38.827Z,4.17
2023-03-14T17:26:06.121Z,4.22
2023-03-14T17:28:33.284Z,4.12
2023-03-14T17:31:10.766Z,4.01
2023-03-14T17:33:37.868Z,3.97
2023-03-14T17:36:05.842Z,3.94
2023-03-14T17:38:34.830Z,4.01
2023-03-14T17:41:01.638Z,4.02
2023-03-14T17:43:28.448Z,3.93
2023-03-14T17:46:06.507Z,3.94
2023-03-14T17:48:33.509Z,3.88
2023-03-14T17:51:02.229Z,3.81
2023-03-14T17:53:29.720Z,3.71
2023-03-14T17:55:57.092Z,3.61
2023-03-14T17:58:24.027Z,3.57
2023-03-14T18:00:51.634Z,3.48
2023-03-14T18:03:18.820Z,3.30
2023-03-14T18:05:45.817Z,3.30
2023-03-14T18:08:14.700Z,3.18
2023-03-14T18:10:42.488Z,3.11
2023-03-14T18:13:09.652Z,3.03
2023-03-14T18:15:36.474Z,2.96
2023-03-14T18:18:03.370Z,2.94
2023-03-14T18:20:31.340Z,2.88
2023-03-14T18:22:58.737Z,2.87
2023-03-14T18:25:25.526Z,2.81
2023-03-14T18:27:52.389Z,2.77
2023-03-14T18:30:20.533Z,2.77
2023-03-14T18:32:47.400Z,2.75
2023-03-14T18:35:14.385Z,2.70
2023-03-14T18:37:41.171Z,2.67
2023-03-14T18:40:10.624Z,2.65
2023-03-14T18:42:37.378Z,2.66
2023-03-14T18:45:04.944Z,2.68
2023-03-14T18:47:35.900Z,2.59
2023-03-14T18:50:08.340Z,2.59
2023-03-14T18:52:35.384Z,2.54
2023-03-14T18:55:02.975Z,2.51
2023-03-14T18:57:29.747Z,2.47
2023-03-14T18:59:58.488Z,2.41
2023-03-14T19:02:26.524Z,2.38
2023-03-14T19:04:54.340Z,2.30
2023-03-14T19:07:23.710Z,2.33
2023-03-14T19:09:50.641Z,2.30
2023-03-14T19:12:19.018Z,2.31
2023-03-14T19:14:46.158Z,2.31
2023-03-14T19:17:13.111Z,2.33
2023-03-14T19:19:39.956Z,2.34
2023-03-14T19:22:06.961Z,2.35
2023-03-14T19:24:35.178Z,2.38
2023-03-14T19:27:02.034Z,2.41
2023-03-14T19:29:28.924Z,2.43
2023-03-14T19:31:56.035Z,2.46
2023-03-14T19:34:23.326Z,2.48
2023-03-14T19:36:50.891Z,2.51
2023-03-14T19:39:17.784Z,2.51
2023-03-14T19:41:44.596Z,2.54
2023-03-14T19:44:13.622Z,2.51
2023-03-14T19:46:41.655Z,2.51
2023-03-14T19:49:08.462Z,2.47
2023-03-14T19:51:35.806Z,2.44
2023-03-14T19:54:05.102Z,2.42
2023-03-14T19:56:33.404Z,2.40
2023-03-14T19:59:03.434Z,2.35
2023-03-14T20:01:31.882Z,2.34
2023-03-14T20:03:59.127Z,2.30
2023-03-14T20:06:25.982Z,2.27
2023-03-14T20:08:52.894Z,2.25
2023-03-14T20:11:20.215Z,2.23
2023-03-14T20:13:47.478Z,2.18
2023-03-14T20:16:14.432Z,2.15
2023-03-14T20:18:41.610Z,2.11
2023-03-14T20:21:12.834Z,2.10
2023-03-14T20:23:40.397Z,2.09
2023-03-14T20:26:07.534Z,2.03
2023-03-14T20:28:34.379Z,2.03
2023-03-14T20:31:01.456Z,2.02
2023-03-14T20:33:28.558Z,1.95
2023-03-14T20:35:58.416Z,1.93
2023-03-14T20:38:27.127Z,1.90
2023-03-14T20:40:59.286Z,1.86
2023-03-14T20:43:27.329Z,1.79
2023-03-14T20:45:59.956Z,1.75
2023-03-14T20:48:28.885Z,1.72
2023-03-14T20:50:56.375Z,1.69
2023-03-14T20:53:24.301Z,1.65
2023-03-14T20:55:54.604Z,1.62
2023-03-14T20:58:21.405Z,1.57
2023-03-14T21:00:50.366Z,1.57
2023-03-14T21:03:18.694Z,1.55
2023-03-14T21:05:47.967Z,1.53
2023-03-14T21:08:20.322Z,1.56
2023-03-14T21:10:49.464Z,1.52
2023-03-14T21:13:16.744Z,1.50
2023-03-14T21:15:44.040Z,1.50
2023-03-14T21:18:11.018Z,1.48
2023-03-14T21:20:40.609Z,1.45
2023-03-14T21:23:07.566Z,1.43
2023-03-14T21:25:35.651Z,1.40
2023-03-14T21:28:04.545Z,1.35
2023-03-14T21:30:35.591Z,1.34
2023-03-14T21:33:02.850Z,1.36
2023-03-14T21:35:30.590Z,1.37
2023-03-14T21:37:57.501Z,1.44
2023-03-14T21:40:24.742Z,1.50
2023-03-14T21:42:54.523Z,1.55
2023-03-14T21:45:26.320Z,1.55
2023-03-14T21:47:55.069Z,1.62
2023-03-14T21:50:23.848Z,1.62
2023-03-14T21:52:52.531Z,1.63
2023-03-14T21:55:19.792Z,1.59
2023-03-14T21:57:48.948Z,1.57
2023-03-14T22:00:19.988Z,1.54
2023-03-14T22:03:08.620Z,1.48
2023-03-14T22:05:37.024Z,1.47
2023-03-14T22:08:03.814Z,1.47
2023-03-14T22:10:30.738Z,1.46
2023-03-14T22:12:57.957Z,1.44
2023-03-14T22:15:24.765Z,1.46
2023-03-14T22:17:51.591Z,1.49
2023-03-14T22:20:18.551Z,1.50
2023-03-14T22:22:45.355Z,1.50
2023-03-14T22:25:12.350Z,1.46
2023-03-14T22:27:39.154Z,1.39
2023-03-14T22:30:06.786Z,1.34
2023-03-14T22:32:34.105Z,1.28
2023-03-14T22:35:00.944Z,1.23
2023-03-14T22:37:27.832Z,1.15
2023-03-14T22:39:54.640Z,1.11
2023-03-14T22:42:21.549Z,1.03
2023-03-14T22:44:48.453Z,1.01
2023-03-14T22:47:15.362Z,0.95
2023-03-14T22:49:42.218Z,0.91
2023-03-14T22:52:09.803Z,0.84
2023-03-14T22:54:36.671Z,0.78
2023-03-14T22:57:03.671Z,0.73
2023-03-14T22:59:30.547Z,0.70
2023-03-14T23:01:59.720Z,0.62
2023-03-14T23:04:27.298Z,0.60
2023-03-14T23:06:54.087Z,0.60
2023-03-14T23:09:21.798Z,0.53
2023-03-14T23:11:48.821Z,0.50
2023-03-14T23:14:15.630Z,0.46
2023-03-14T23:16:42.451Z,0.45
2023-03-14T23:19:10.686Z,0.45
2023-03-14T23:21:37.980Z,0.42
2023-03-14T23:24:06.274Z,0.42
2023-03-14T23:26:36.270Z,0.39
2023-03-14T23:29:07.120Z,0.37
2023-03-14T23:31:34.490Z,0.35
2023-03-14T23:34:01.805Z,0.31
2023-03-14T23:36:29.757Z,0.27
2023-03-14T23:38:56.823Z,0.24
2023-03-14T23:41:23.593Z,0.19
2023-03-14T23:43:50.553Z,0.18
2023-03-14T23:46:18.012Z,0.16
2023-03-14T23:48:48.343Z,0.14
2023-03-14T23:51:16.635Z,0.14
2023-03-14T23:53:44.362Z,0.13
2023-03-14T23:56:16.646Z,0.09
2023-03-14T23:58:43.558Z,0.05
